sensor_id;sensor_type;location;lat;lon;timestamp;temperature;humidity
7378;DHT22;3730;50.856;12.776;2024-01-27T13:03:57;8.00;1.00
7378;DHT22;3730;50.856;12.776;2024-01-27T13:06:23;7.70;1.00
7378;DHT22;3730;50.856;12.776;2024-01-27T13:16:08;8.10;1.00
7378;DHT22;3730;50.856;12.776;2024-01-27T13:18:34;8.30;1.00
7378;DHT22;3730;50.856;12.776;2024-01-27T13:20:59;8.40;1.00
7378;DHT22;3730;50.856;12.776;2024-01-27T13:23:25;8.60;1.00
7378;DHT22;3730;50.856;12.776;2024-01-27T13:25:51;8.70;1.00
7378;DHT22;3730;50.856;12.776;2024-01-27T13:28:17;8.90;1.00
7378;DHT22;3730;50.856;12.776;2024-01-27T13:30:43;8.60;1.00
7378;DHT22;3730;50.856;12.776;2024-01-27T13:33:08;9.00;1.00
7378;DHT22;3730;50.856;12.776;2024-01-27T13:40:26;9.20;1.00
7378;DHT22;3730;50.856;12.776;2024-01-27T13:42:52;9.10;1.00
7378;DHT22;3730;50.856;12.776;2024-01-27T13:45:18;9.40;1.00
7378;DHT22;3730;50.856;12.776;2024-01-27T13:47:44;9.50;1.00
7378;DHT22;3730;50.856;12.776;2024-01-27T13:50:11;9.60;1.00
7378;DHT22;3730;50.856;12.776;2024-01-27T13:52:36;9.30;1.00
7378;DHT22;3730;50.856;12.776;2024-01-27T13:55:02;9.20;1.00
7378;DHT22;3730;50.856;12.776;2024-01-27T13:59:54;8.70;1.00
7378;DHT22;3730;50.856;12.776;2024-01-27T14:02:19;8.50;1.00
7378;DHT22;3730;50.856;12.776;2024-01-27T14:04:45;8.10;1.00
7378;DHT22;3730;50.856;12.776;2024-01-27T14:09:36;8.80;1.00
7378;DHT22;3730;50.856;12.776;2024-01-27T14:14:28;8.10;1.00
7378;DHT22;3730;50.856;12.776;2024-01-27T14:16:54;8.10;1.00
7378;DHT22;3730;50.856;12.776;2024-01-27T14:19:19;8.00;1.00
7378;DHT22;3730;50.856;12.776;2024-01-27T14:21:45;7.80;1.00
7378;DHT22;3730;50.856;12.776;2024-01-27T14:24:11;7.70;1.00
7378;DHT22;3730;50.856;12.776;2024-01-27T14:26:36;7.80;1.00
7378;DHT22;3730;50.856;12.776;2024-01-27T14:29:04;7.80;1.00
7378;DHT22;3730;50.856;12.776;2024-01-27T14:31:30;7.50;1.00
7378;DHT22;3730;50.856;12.776;2024-01-27T14:33:56;7.20;1.00
7378;DHT22;3730;50.856;12.776;2024-01-27T14:36:22;7.30;1.00
7378;DHT22;3730;50.856;12.776;2024-01-27T14:38:49;7.30;1.00
7378;DHT22;3730;50.856;12.776;2024-01-27T14:41:14;7.30;1.00
7378;DHT22;3730;50.856;12.776;2024-01-27T14:46:07;7.10;1.00
7378;DHT22;3730;50.856;12.776;2024-01-27T14:48:33;7.20;1.00
7378;DHT22;3730;50.856;12.776;2024-01-27T14:50:59;7.10;1.00
7378;DHT22;3730;50.856;12.776;2024-01-27T14:53:28;7.30;1.00
7378;DHT22;3730;50.856;12.776;2024-01-27T14:55:55;7.10;1.00
7378;DHT22;3730;50.856;12.776;2024-01-27T14:58:21;7.20;1.00
7378;DHT22;3730;50.856;12.776;2024-01-27T15:00:47;7.10;1.00
7378;DHT22;3730;50.856;12.776;2024-01-27T15:03:23;7.10;1.00
7378;DHT22;3730;50.856;12.776;2024-01-27T15:05:51;6.90;1.00
7378;DHT22;3730;50.856;12.776;2024-01-27T15:08:18;6.80;1.00
7378;DHT22;3730;50.856;12.776;2024-01-27T15:10:44;6.90;1.00
7378;DHT22;3730;50.856;12.776;2024-01-27T15:13:11;6.80;1.00
7378;DHT22;3730;50.856;12.776;2024-01-27T15:15:37;6.70;1.00
7378;DHT22;3730;50.856;12.776;2024-01-27T15:18:07;6.80;1.00
7378;DHT22;3730;50.856;12.776;2024-01-27T15:20:34;6.70;1.00
7378;DHT22;3730;50.856;12.776;2024-01-27T15:23:00;6.80;1.00
7378;DHT22;3730;50.856;12.776;2024-01-27T15:25:26;6.70;1.00
7378;DHT22;3730;50.856;12.776;2024-01-27T15:27:51;6.60;1.00
7378;DHT22;3730;50.856;12.776;2024-01-27T15:30:17;6.60;1.00
7378;DHT22;3730;50.856;12.776;2024-01-27T15:32:47;6.60;1.00
7378;DHT22;3730;50.856;12.776;2024-01-27T15:35:13;6.40;1.00
7378;DHT22;3730;50.856;12.776;2024-01-27T15:37:39;6.60;1.00
7378;DHT22;3730;50.856;12.776;2024-01-27T15:40:06;6.50;1.00
7378;DHT22;3730;50.856;12.776;2024-01-27T15:42:31;6.40;1.00
7378;DHT22;3730;50.856;12.776;2024-01-27T15:44:57;6.30;1.00
7378;DHT22;3730;50.856;12.776;2024-01-27T15:47:23;8.00;1.00
7378;DHT22;3730;50.856;12.776;2024-01-27T15:49:50;6.20;1.00
7378;DHT22;3730;50.856;12.776;2024-01-27T15:52:18;6.30;1.00
7378;DHT22;3730;50.856;12.776;2024-01-27T15:54:44;6.00;1.00
7378;DHT22;3730;50.856;12.776;2024-01-27T15:59:39;6.00;1.00
7378;DHT22;3730;50.856;12.776;2024-01-27T16:02:05;6.00;1.00
7378;DHT22;3730;50.856;12.776;2024-01-27T16:09:23;6.20;1.00
7378;DHT22;3730;50.856;12.776;2024-01-27T16:14:14;5.90;1.00
7378;DHT22;3730;50.856;12.776;2024-01-27T16:19:06;6.10;1.00
7378;DHT22;3730;50.856;12.776;2024-01-27T16:28:52;5.70;1.00
7378;DHT22;3730;50.856;12.776;2024-01-27T16:31:18;6.00;1.00
7378;DHT22;3730;50.856;12.776;2024-01-27T16:33:44;5.80;1.00
7378;DHT22;3730;50.856;12.776;2024-01-27T16:36:10;5.80;1.00
7378;DHT22;3730;50.856;12.776;2024-01-27T16:38:35;5.90;1.00
